Fort Shafter, HI (96858)

2:38 PM HST on February 13, 2016 (GMT -1000)
Pacific Heights | | Change Station
CLOSE
Current Station
Personal Weather Station
Location: Honolulu, HI
Elevation: 528 ft
Nearby Weather Stations

Elev 528 ft 21.33 °N, 157.84 °W | Updated 3 seconds ago

Scattered Clouds
Scattered Clouds
81.7 °F
Feels Like 85 °F
N
2.0
Wind Variable Wind from SSW
Gusts 6.0 mph

Today
High -- | Low -- °F
--% Chance of Precip.
Yesterday
High -- | Low -- °F
Precip. -- in
Pressure 30.00 in
Visibility 10.0 miles
Clouds Few 2700 ft
Scattered Clouds 4000 ft
Scattered Clouds 5000 ft
Heat Index 85 °F
Dew Point 69 °F
Humidity 66%
Rainfall 0.00 in
Snow Depth Not available.
7:03 AM 6:28 PM
Waxing Crescent, 35% visible
METAR PHNL 132353Z 11009G16KT 080V160 10SM FEW027 SCT040 SCT050 29/21 A3000 RMK AO2 SLP159 T02890206 10289 20250 58030
Pressure 30.00 in
Visibility 10.0 miles
Clouds Few 2700 ft
Scattered Clouds 4000 ft
Scattered Clouds 5000 ft
Heat Index 85 °F
Dew Point 69 °F
Humidity 66%
Rainfall 0.00 in
Snow Depth Not available.
7:03 AM 6:28 PM
Waxing Crescent, 35% visible
METAR PHNL 132353Z 11009G16KT 080V160 10SM FEW027 SCT040 SCT050 29/21 A3000 RMK AO2 SLP159 T02890206 10289 20250 58030

10-Day Weather Forecast

Almanac

Astronomy

Feb. 13, 2016 Rise Set
Actual Time
Civil Twilight
Nautical Twilight
Astronomical Twilight
Moon
Length of Visible Light
Length of Day
Tomorrow will be .
, % of the Moon is Illuminated

Today's Extremes

State Highs State Lows

Community

WunderPhotos

Upload Photos

1,892,712 photos uploaded!

WunderBlog® & News

Nearby

Air Quality

  Air Quality AQ Index Pollutant
Not available.

Snow Depth

Station Depth Elevation

Earthquake Activity

City Distance Mag. Time & Date
Minimum magnitude displayed is 2.5.

Coastal Water Temperatures

Place Temperature

Stations

Nearby Weather Stations

Station Location Temp. Windchill Dew Point Humidity Wind Precip. Elev Updated Type
                   

Watches & Warnings

There are currently no watches in effect.